Etusivu
METAR-TAF:

METAR-TAF

Lentoasemat :

Peking, Kiina

Pekingin kansainvälinen lentoasema

Leveyspiiri: 39-56N, Pituuspiiri: 116-17E, korkeus merenpinnasta: 55 m

Tämänhetkinen sää

Tämä raportti tehtiin 36 minuuttia sitten, kello 10.00 UTC
Tuuli 10 kn lännestä/lounaasta puuskistuen 21 kn:hen, vaihdellen lounaan ja pohjoisen/koillisen välillä
Lämpötila 30°C
Kosteus 18%
Ilmanpaine 1010 hPa
Näkyvyys 10 km tai enemmän
ei pilviä alle 1500 m:ssä eikä cumulonimbus-pilviä

METAR: ZBAA 231000Z 25005G11MPS 220V030 CAVOK 30/03 Q1010 NOSIG

Aika: 18:36 (10:36 UTC)

Sääennuste

Tämä raportti tehtiin 7 tuntia ja 6 minuuttia sitten, kello 03.30 UTC
Ennuste voimassa 23. päivästä klo 06 UTC - 24. päivään klo 06 UTC
Tuuli 8 kn etelästä
Näkyvyys: 7000 m

TAF: ZBAA 230330Z 2306/2406 19004MPS 7000 NSC TX28/2307Z TN16/2321Z

Säähavainnot ja -ennusteet yli 4000 lentoasemalta (METAR- ja TAF-raportit).

Käytössä olevat sääasemat on merkitty karttaan keltaisilla ja punaisilla pisteillä.

Aseta hiiri pisteen päälle nähdäksesi sääaseman nimen.

Klikkaa sitten nähdäksesi säähavainnot ja -ennusteet.

Kartan vaihtaminen: klikkaa mustalla rastilla varustettuja vihreitä pisteitä, niin voit zoomata sisään; viivalla varustettua vihreää pistettä, niin voit zoomata ulos tai vihreitä nuolia, niin pääset viereisille kartoille.


METAR-TAF: